Latest Weather Observations for Bairnsdale

IDV60801

Issued at 7:31 pm EST Tuesday 30 June 2015 (issued every 30 minutes, with the page automatically refreshed every 10 minutes)

About weather observations | Map of weather stations | Latest weather observations for VIC | Other Formats
Station Details ID: 085279 Name: BAIRNSDALE AIRPORT Lat: -37.88 Lon: 147.57 Height: 49.4 m
Data from the previous 72 hours. | See also: Recent months at Bairnsdale
Date/Time
EST
Temp
°C
App
Temp
°C
Dew
Point
Rel
Hum
%
Delta-T
°C
Wind Press
QNH
hPa
Press
MSL
hPa
Rain
since 9 am
mm
Dir
 
Spd
km/h
Gust
km/h
Spd
kts
Gust
kts
30/07:30pm 9.4 7.0 7.2 86 1.0 NW 9 11 5 6 1027.5 1027.6 0.0
30/07:00pm 9.4 7.4 7.2 86 1.0 NW 7 9 4 5 1027.3 1027.4 0.0
30/06:30pm 9.7 7.7 7.1 84 1.2 NNW 7 9 4 5 1027.1 1027.2 0.0
30/06:00pm 9.9 7.9 7.0 82 1.4 NNW 7 7 4 4 1027.0 1027.1 0.0
30/05:30pm 10.1 8.1 7.0 81 1.5 NW 7 9 4 5 1026.9 1027.0 0.0
30/05:00pm 10.4 8.4 6.9 79 1.6 NW 7 9 4 5 1026.7 1026.8 0.0
30/04:30pm 10.9 8.8 6.8 76 1.9 NW 7 9 4 5 1026.5 1026.6 0.0
30/04:00pm 11.5 9.4 6.6 72 2.3 NNW 7 9 4 5 1026.3 1026.4 0.0
30/03:30pm 11.9 9.9 6.2 68 2.7 W 6 7 3 4 1026.3 1026.4 0.0
30/03:00pm 12.1 9.8 5.9 66 2.9 W 7 9 4 5 1026.1 1026.2 0.0
30/02:30pm 12.1 9.3 5.3 63 3.1 SSW 9 15 5 8 1026.1 1026.2 0.0
30/02:00pm 12.3 9.1 5.2 62 3.3 SW 11 17 6 9 1026.1 1026.2 0.0
30/01:30pm 12.9 10.2 5.8 62 3.3 WNW 9 13 5 7 1026.4 1026.5 0.0
30/01:00pm 11.6 8.9 5.7 67 2.7 WSW 9 19 5 10 1026.8 1026.9 0.0
30/12:30pm 12.3 9.8 6.4 67 2.8 WSW 9 15 5 8 1027.1 1027.2 0.0
30/12:00pm 12.1 9.6 6.4 68 2.7 W 9 19 5 10 1027.4 1027.5 0.0
30/11:30am 11.9 8.9 6.0 67 2.8 NW 11 15 6 8 1027.9 1028.0 0.0
30/11:00am 11.4 8.4 6.1 70 2.5 NW 11 15 6 8 1028.3 1028.4 0.0
30/10:30am 10.9 7.6 6.3 73 2.2 WNW 13 17 7 9 1028.7 1028.8 0.0
30/10:00am 10.2 6.9 6.2 76 1.8 NW 13 15 7 8 1028.8 1028.9 0.0
30/09:30am 9.7 6.4 6.2 79 1.6 NW 13 17 7 9 1028.6 1028.7 0.0
30/09:00am 8.6 6.1 6.6 87 0.9 NW 9 13 5 7 1028.8 1028.9 0.0
30/08:30am 8.1 5.9 6.2 88 0.9 NW 7 9 4 5 1028.9 1029.0 0.0
30/08:00am 8.0 5.3 5.8 86 1.0 W 9 11 5 6 1028.8 1028.9 0.0
30/07:30am 7.9 5.6 5.9 87 0.9 WNW 7 11 4 6 1028.8 1028.9 0.0
30/07:00am 8.0 5.7 5.8 86 1.0 WSW 7 13 4 7 1028.7 1028.8 0.0
30/06:30am 7.8 5.6 6.1 89 0.8 WNW 7 9 4 5 1028.6 1028.7 0.0
30/06:00am 7.8 5.6 6.1 89 0.8 WSW 7 9 4 5 1028.5 1028.6 0.0
30/05:30am 8.2 5.2 6.0 86 1.0 SSW 11 13 6 7 1028.3 1028.4 0.0
30/05:00am 8.2 6.0 6.0 86 1.0 W 7 9 4 5 1028.3 1028.4 0.0
30/04:30am 8.2 5.3 6.5 89 0.8 SSW 11 13 6 7 1028.0 1028.1 0.0
30/04:00am 8.1 5.6 6.4 89 0.8 SW 9 11 5 6 1028.2 1028.3 0.0
30/03:30am 7.9 6.0 6.5 91 0.6 W 6 9 3 5 1028.3 1028.4 0.0
30/03:00am 7.7 6.5 6.6 93 0.5 WSW 2 7 1 4 1028.6 1028.7 0.0
30/02:30am 7.4 5.5 6.7 95 0.3 SW 6 9 3 5 1028.6 1028.7 0.0
30/02:00am 7.7 5.6 6.8 94 0.4 WSW 7 9 4 5 1028.9 1029.0 0.0
30/01:30am 7.6 6.5 6.7 94 0.4 WNW 2 9 1 5 1029.1 1029.2 0.0
30/01:00am 7.5 5.4 6.8 95 0.3 NW 7 7 4 4 1029.2 1029.3 0.0
30/12:30am 7.1 5.0 6.5 96 0.3 NW 7 9 4 5 1029.3 1029.4 0.0
30/12:00am 7.0 4.8 6.1 94 0.4 NNW 7 11 4 6 1029.6 1029.6 0.0
 
Date/Time
EST
Temp
°C
App
Temp
°C
Dew
Point
Rel
Hum
%
Delta-T
°C
Wind Press
QNH
hPa
Press
MSL
hPa
Rain
since 9 am
mm
Dir
 
Spd
km/h
Gust
km/h
Spd
kts
Gust
kts
29/11:30pm 7.0 4.9 5.9 93 0.5 N 6 9 3 5 1029.8 1029.8 0.0
29/11:00pm 7.8 5.5 5.6 86 1.0 W 7 9 4 5 1029.9 1029.9 0.0
29/10:30pm 7.8 5.3 6.4 91 0.6 WNW 9 9 5 5 1030.1 1030.1 0.0
29/10:00pm 6.3 3.7 6.3 100 0.0 WNW 9 13 5 7 1030.4 1030.4 0.0
29/09:51pm 6.3 3.4 6.3 100 0.0 WNW 11 13 6 7 1030.5 1030.5 0.0
29/09:30pm 5.7 3.0 5.7 100 0.0 WNW 9 11 5 6 1030.6 1030.6 0.0
29/09:00pm 5.2 2.4 5.2 100 0.0 NW 9 11 5 6 1030.9 1030.9 0.0
29/08:30pm 4.4 1.5 4.4 100 0.0 NW 9 9 5 5 1031.0 1031.0 0.0
29/08:00pm 4.7 1.7 4.3 97 0.2 NW 9 11 5 6 1031.2 1031.2 0.0
29/07:48pm 4.8 1.8 4.1 95 0.3 NW 9 11 5 6 1031.3 1031.3 0.0
29/07:30pm 5.5 3.0 4.6 94 0.4 W 7 9 4 5 1031.2 1031.2 0.0
29/07:00pm 6.0 3.2 5.1 94 0.4 W 9 13 5 7 1031.1 1031.1 0.0
29/06:30pm 6.6 3.4 5.2 91 0.6 WSW 11 13 6 7 1030.9 1030.9 0.0
29/06:00pm 6.8 4.3 6.4 97 0.2 W 9 9 5 5 1030.8 1030.8 0.0
29/05:30pm 6.9 4.7 6.0 94 0.4 WSW 7 7 4 4 1030.6 1030.6 0.0
29/05:00pm 8.5 6.2 5.6 82 1.3 SW 7 9 4 5 1030.2 1030.2 0.0
29/04:30pm 11.2 9.3 6.7 74 2.1 SSW 6 7 3 4 1030.4 1030.4 0.0
29/04:00pm 12.3 10.4 6.8 69 2.6 SSW 6 7 3 4 1030.7 1030.7 0.0
29/03:30pm 12.1 10.9 6.4 68 2.7 SW 2 6 1 3 1030.6 1030.6 0.0
29/03:00pm 12.6 10.1 6.6 67 2.8 SSW 9 11 5 6 1030.5 1030.5 0.0
29/02:30pm 12.7 10.6 6.7 67 2.9 S 7 13 4 7 1030.4 1030.4 0.0
29/02:00pm 12.4 10.2 6.0 65 3.0 SSE 7 9 4 5 1030.6 1030.6 0.0
29/01:30pm 13.0 10.6 7.0 67 2.9 S 9 11 5 6 1031.1 1031.1 0.0
29/01:00pm 12.6 10.1 6.6 67 2.8 SSW 9 13 5 7 1031.3 1031.3 0.0
29/12:30pm 12.7 10.9 7.0 68 2.8 WSW 6 9 3 5 1031.8 1031.9 0.0
29/12:00pm 12.1 9.7 6.8 70 2.5 W 9 13 5 7 1032.3 1032.4 0.0
29/11:30am 12.1 9.8 7.6 74 2.2 WNW 9 15 5 8 1032.8 1032.9 0.0
29/11:00am 10.9 8.3 6.3 73 2.1 NW 9 13 5 7 1033.2 1033.3 0.0
29/10:30am 10.1 7.2 6.3 77 1.8 NW 11 17 6 9 1033.4 1033.5 0.0
29/10:00am 8.9 5.9 5.8 81 1.4 NW 11 15 6 8 1033.7 1033.8 0.0
29/09:30am 7.7 4.2 5.5 86 1.0 NW 13 17 7 9 1033.7 1033.8 0.0
29/09:00am 6.6 3.1 5.4 92 0.5 NW 13 15 7 8 1033.5 1033.6 0.2
29/08:30am 5.4 2.1 4.5 94 0.4 NW 11 13 6 7 1033.6 1033.7 0.2
29/08:00am 4.6 0.9 4.5 99 0.0 NW 13 17 7 9 1033.3 1033.4 0.2
29/07:30am 3.9 -0.3 3.8 99 0.0 WNW 15 19 8 10 1033.2 1033.3 0.2
29/07:00am 4.1 -0.1 4.0 99 0.0 WNW 15 17 8 9 1033.0 1033.1 0.0
29/06:30am 4.3 0.2 4.3 100 0.0 WNW 15 19 8 10 1032.8 1032.9 0.0
29/06:00am 4.6 0.5 4.6 100 0.0 WNW 15 17 8 9 1032.9 1033.0 0.0
29/05:30am 4.4 0.3 4.4 100 0.0 WNW 15 17 8 9 1032.8 1032.9 0.0
29/05:00am 4.5 0.4 4.5 100 0.0 WNW 15 15 8 8 1032.7 1032.8 0.0
29/04:30am 4.1 0.3 4.1 100 0.0 NW 13 15 7 8 1032.8 1032.9 0.0
29/04:00am 4.5 0.8 4.5 100 0.0 NW 13 15 7 8 1032.8 1032.9 0.0
29/03:30am 4.9 1.3 4.9 100 0.0 WNW 13 17 7 9 1032.9 1033.0 0.0
29/03:00am 4.4 -0.1 4.4 100 0.0 WNW 17 19 9 10 1033.1 1033.2 0.0
29/02:55am 4.4 -0.1 4.4 100 0.0 WNW 17 19 9 10 1033.1 1033.2 0.0
29/02:30am 2.6 -1.4 2.6 100 0.0 NW 13 13 7 7 1032.9 1033.0 0.0
29/02:02am 4.3 1.0 4.3 100 0.0 NNW 11 13 6 7 1032.7 1032.8 0.0
29/02:00am 4.4 1.5 4.4 100 0.0 NNW 9 13 5 7 1032.6 1032.7 0.0
29/01:39am 4.1 1.1 4.1 100 0.0 NW 9 13 5 7 1032.7 1032.8 0.0
29/01:30am 4.4 1.5 4.4 100 0.0 NW 9 13 5 7 1032.7 1032.8 0.0
29/01:07am 4.6 2.1 4.6 100 0.0 WNW 7 9 4 5 1032.7 1032.8 0.0
29/01:00am 5.2 2.8 5.2 100 0.0 WNW 7 9 4 5 1032.6 1032.7 0.0
29/12:30am 5.1 2.3 5.1 100 0.0 NW 9 11 5 6 1032.7 1032.8 0.0
29/12:00am 5.1 2.3 5.0 99 0.0 NW 9 13 5 7 1033.0 1033.1 0.0
 
Date/Time
EST
Temp
°C
App
Temp
°C
Dew
Point
Rel
Hum
%
Delta-T
°C
Wind Press
QNH
hPa
Press
MSL
hPa
Rain
since 9 am
mm
Dir
 
Spd
km/h
Gust
km/h
Spd
kts
Gust
kts
28/11:30pm 4.9 2.0 4.8 99 0.0 NW 9 11 5 6 1033.2 1033.3 0.0
28/11:00pm 4.7 1.4 4.3 97 0.2 NW 11 13 6 7 1033.3 1033.4 0.0
28/10:30pm 5.5 2.2 4.6 94 0.4 NW 11 11 6 6 1033.4 1033.5 0.0
28/10:00pm 5.6 2.3 4.7 94 0.4 NW 11 13 6 7 1033.7 1033.8 0.0
28/09:30pm 6.0 2.8 5.3 95 0.3 NW 11 13 6 7 1033.8 1033.9 0.0
28/09:00pm 6.4 3.7 5.8 96 0.3 NW 9 11 5 6 1033.8 1033.9 0.0
28/08:30pm 6.5 3.3 5.3 92 0.5 NNW 11 13 6 7 1033.8 1033.9 0.0
28/08:00pm 5.7 2.8 4.8 94 0.4 NW 9 11 5 6 1033.7 1033.8 0.0
28/07:30pm 5.7 2.7 4.3 91 0.6 NW 9 11 5 6 1033.5 1033.6 0.0
28/07:00pm 5.9 2.5 4.2 89 0.7 NW 11 13 6 7 1033.3 1033.4 0.0
28/06:30pm 7.9 5.5 5.2 83 1.2 NNW 7 11 4 6 1032.9 1033.0 0.0
28/06:00pm 9.2 5.7 5.4 77 1.7 WSW 13 17 7 9 1032.5 1032.6 0.0
28/05:30pm 10.3 6.2 6.1 75 2.0 WSW 17 22 9 12 1032.3 1032.4 0.0
28/05:00pm 10.6 7.3 6.6 76 1.9 WSW 13 19 7 10 1032.2 1032.3 0.0
28/04:30pm 12.0 8.5 7.1 72 2.4 SW 15 19 8 10 1032.1 1032.2 0.0
28/04:00pm 13.2 8.8 7.2 67 2.9 WSW 20 28 11 15 1031.8 1031.9 0.0
28/03:30pm 14.3 10.4 7.1 62 3.5 WSW 17 24 9 13 1031.6 1031.7 0.0
28/03:00pm 14.6 10.1 6.9 60 3.7 WSW 20 28 11 15 1031.5 1031.6 0.0
28/02:30pm 14.8 10.3 7.1 60 3.8 WSW 20 28 11 15 1031.3 1031.3 0.0
28/02:00pm 15.6 12.4 8.6 63 3.5 WSW 15 22 8 12 1031.4 1031.5 0.0
28/01:30pm 15.2 11.0 8.4 64 3.4 WSW 20 28 11 15 1031.7 1031.8 0.0
28/01:00pm 15.0 10.6 7.5 61 3.7 WSW 20 28 11 15 1031.7 1031.8 0.0
28/12:30pm 14.8 11.0 7.6 62 3.6 WSW 17 24 9 13 1032.1 1032.2 0.0
28/12:00pm 14.5 11.0 7.3 62 3.5 WNW 15 22 8 12 1032.4 1032.5 0.0
28/11:30am 13.3 10.0 6.6 64 3.2 NW 13 19 7 10 1032.7 1032.8 0.0
28/11:00am 12.7 9.5 7.0 68 2.7 NW 13 17 7 9 1033.1 1033.2 0.0
28/10:30am 11.5 8.2 6.2 70 2.5 WNW 13 17 7 9 1033.2 1033.3 0.0
28/10:00am 10.4 6.7 6.2 75 1.9 NW 15 20 8 11 1033.2 1033.3 0.0
28/09:30am 8.9 5.3 5.1 77 1.7 NW 13 19 7 10 1033.1 1033.2 0.0
28/09:00am 7.8 3.4 4.7 81 1.4 WNW 17 22 9 12 1033.1 1033.2 0.0
28/08:30am 6.4 1.3 3.9 84 1.1 NW 20 24 11 13 1032.8 1032.9 0.0
28/08:00am 5.2 0.9 3.2 87 0.8 NW 15 19 8 10 1032.8 1032.9 0.0
28/07:30am 4.7 0.7 2.9 88 0.7 NW 13 17 7 9 1032.7 1032.8 0.0
28/07:00am 5.3 1.0 3.2 86 0.9 NW 15 19 8 10 1032.6 1032.7 0.0
28/06:30am 5.3 1.0 3.3 87 0.8 NW 15 19 8 10 1032.3 1032.4 0.0
28/06:00am 5.3 0.6 3.3 87 0.8 WNW 17 20 9 11 1032.0 1032.1 0.0
28/05:30am 5.5 1.2 3.3 86 0.9 NW 15 20 8 11 1031.6 1031.7 0.0
28/05:00am 5.9 1.3 3.6 85 1.0 NW 17 20 9 11 1031.3 1031.3 0.0
28/04:30am 6.2 2.0 3.9 85 1.0 WNW 15 20 8 11 1031.4 1031.5 0.0
28/04:00am 6.0 1.8 3.7 85 1.0 WNW 15 17 8 9 1031.2 1031.2 0.0
28/03:30am 5.8 1.6 3.8 87 0.8 WNW 15 17 8 9 1031.4 1031.5 0.0
28/03:00am 5.5 1.6 3.5 87 0.8 NW 13 19 7 10 1031.3 1031.3 0.0
28/02:30am 6.2 2.1 4.2 87 0.9 NW 15 19 8 10 1031.2 1031.2 0.0
28/02:00am 6.0 2.3 4.2 88 0.8 NW 13 19 7 10 1031.1 1031.1 0.0
28/01:30am 5.9 2.2 4.4 90 0.6 NW 13 17 7 9 1031.1 1031.1 0.0
28/01:00am 5.6 2.2 4.2 91 0.6 NW 11 13 6 7 1031.2 1031.2 0.0
28/12:30am 5.6 2.3 4.4 92 0.5 NW 11 15 6 8 1031.2 1031.2 0.0
28/12:00am 5.9 2.2 4.7 92 0.5 NW 13 17 7 9 1031.1 1031.1 0.0
 
Date/Time
EST
Temp
°C
App
Temp
°C
Dew
Point
Rel
Hum
%
Delta-T
°C
Wind Press
QNH
hPa
Press
MSL
hPa
Rain
since 9 am
mm
Dir
 
Spd
km/h
Gust
km/h
Spd
kts
Gust
kts
27/11:30pm 6.0 2.4 5.0 93 0.4 NW 13 17 7 9 1031.3 1031.3 0.0
27/11:00pm 6.0 2.4 5.1 94 0.4 NW 13 17 7 9 1031.3 1031.3 0.0
27/10:30pm 5.9 2.3 5.0 94 0.4 NW 13 17 7 9 1031.3 1031.3 0.0
27/10:00pm 5.9 2.7 5.0 94 0.4 NW 11 15 6 8 1031.3 1031.3 0.0
27/09:30pm 6.4 2.4 5.0 91 0.6 NW 15 19 8 10 1031.4 1031.5 0.0
27/09:00pm 6.6 2.3 5.2 91 0.6 WNW 17 20 9 11 1031.5 1031.6 0.0
27/08:30pm 6.6 2.6 4.9 89 0.7 WNW 15 19 8 10 1031.4 1031.5 0.0
27/08:00pm 7.2 3.4 5.7 90 0.7 NW 15 19 8 10 1031.3 1031.3 0.0

Other Formats:

Comma delimited format used in spreadsheet applications
http://www.bom.gov.au/fwo/IDV60801/IDV60801.94912.axf

JavaScript Object Notation format (JSON) in row-major order
http://www.bom.gov.au/fwo/IDV60801/IDV60801.94912.json